Billings, MT

4:30 PM MST on February 27, 2015 (GMT -0700)
Downtown Billings | Change Station
CLOSE
Current Station
Personal Weather Station
Location: Billings, MT
Elevation: 3127 ft
Nearby Weather Stations

Elev 3127 ft 45.78 °N, 108.50 °W | Updated 3 minutes ago

Partly Cloudy
Partly Cloudy
32.3 °F
Feels Like 32 °F
N
1.1
Wind Variable Wind from ESE
Gusts 5.1 mph

Today
High -- | Low -- °F
--% Chance of Precip.
Yesterday
High -- | Low -- °F
Precip. -- in
6:56 AM 5:57 PM
Waxing Gibbous, 72% visible
Pressure 30.07 in
Visibility 10.0 miles
Clouds Scattered Clouds 8500 ft
Scattered Clouds 22000 ft
Windchill 32 °F
Dew Point 13 °F
Humidity 43%
Rainfall -999.00 in
Snow Depth Not available.
UV 1 out of 12
Pollen .10 out of 12
Air Quality Not available.
Flu Activity Not available.
METAR KBIL 272253Z VRB03KT 10SM SCT085 SCT220 M02/M13 A2991 RMK AO2 SLP183 SHSN DSNT SW T10171128

More Conditions Fewer Conditions

Pressure 30.07 in
Visibility 10.0 miles
Clouds Scattered Clouds 8500 ft
Scattered Clouds 22000 ft
Windchill 32 °F
Dew Point 13 °F
Humidity 43%
Rainfall -999.00 in
Snow Depth Not available.
UV 1 out of 12
Pollen .10 out of 12
Air Quality Not available.
Flu Activity Not available.
METAR KBIL 272253Z VRB03KT 10SM SCT085 SCT220 M02/M13 A2991 RMK AO2 SLP183 SHSN DSNT SW T10171128

More Conditions Fewer Conditions

10-Day Weather Forecast

Almanac

Astronomy

Feb. 27, 2015 Rise Set
Actual Time
Civil Twilight
Nautical Twilight
Astronomical Twilight
Moon
Length of Visible Light
Length of Day
Tomorrow will be .
, % of the Moon is Illuminated

Today's Extremes

State Highs State Lows

Community

WunderPhotos

Upload Photos

1,800,878 photos uploaded!

WunderBlogs® & News

Nearby

Air Quality

  Air Quality AQ Index Pollutant
Not available.

Snow Depth

Station Depth Elevation

Earthquake Activity

City Distance Mag. Time & Date
Minimum magnitude displayed is 2.5.

Coastal Water Temperatures

Place Temperature

Nearby Weather Stations